createdAt,value
2019-02-21T00:00:11.505Z,7.40
2019-02-21T00:02:39.919Z,7.40
2019-02-21T00:05:08.435Z,7.30
2019-02-21T00:07:36.867Z,7.30
2019-02-21T00:10:06.509Z,7.30
2019-02-21T00:12:35.102Z,7.30
2019-02-21T00:15:03.711Z,7.30
2019-02-21T00:17:32.155Z,7.30
2019-02-21T00:20:00.603Z,7.30
2019-02-21T00:22:29.013Z,7.30
2019-02-21T00:24:57.442Z,7.30
2019-02-21T00:27:25.887Z,7.30
2019-02-21T00:29:54.341Z,7.20
2019-02-21T00:32:22.757Z,7.20
2019-02-21T00:34:51.223Z,7.20
2019-02-21T00:37:19.635Z,7.20
2019-02-21T00:39:48.112Z,7.10
2019-02-21T00:42:16.538Z,7.10
2019-02-21T00:44:44.980Z,7.10
2019-02-21T00:47:13.403Z,7.00
2019-02-21T00:49:41.842Z,7.00
2019-02-21T00:52:10.284Z,7.00
2019-02-21T00:54:38.741Z,6.90
2019-02-21T00:57:07.177Z,6.90
2019-02-21T00:59:35.587Z,6.90
2019-02-21T01:02:04.097Z,6.90
2019-02-21T01:04:32.558Z,6.90
2019-02-21T01:07:00.985Z,6.90
2019-02-21T01:09:29.414Z,6.90
2019-02-21T01:11:57.857Z,6.90
2019-02-21T01:14:26.276Z,6.80
2019-02-21T01:16:54.832Z,6.70
2019-02-21T01:19:23.312Z,6.60
2019-02-21T01:21:51.781Z,6.60
2019-02-21T01:24:20.184Z,6.60
2019-02-21T01:26:48.613Z,6.50
2019-02-21T01:29:17.049Z,6.50
2019-02-21T01:31:45.470Z,6.50
2019-02-21T01:34:14.251Z,6.40
2019-02-21T01:36:42.722Z,6.50
2019-02-21T01:39:11.190Z,6.40
2019-02-21T01:41:39.660Z,6.40
2019-02-21T01:44:08.088Z,6.40
2019-02-21T01:46:36.501Z,6.40
2019-02-21T01:49:04.953Z,6.40
2019-02-21T01:51:33.372Z,6.40
2019-02-21T01:54:01.832Z,6.40
2019-02-21T01:56:30.287Z,6.40
2019-02-21T01:58:58.805Z,6.30
2019-02-21T02:01:27.217Z,6.20
2019-02-21T02:03:55.768Z,6.20
2019-02-21T02:06:24.181Z,6.10
2019-02-21T02:08:52.606Z,6.10
2019-02-21T02:11:21.059Z,6.10
2019-02-21T02:13:49.496Z,6.10
2019-02-21T02:16:17.919Z,6.00
2019-02-21T02:18:46.369Z,6.00
2019-02-21T02:21:14.804Z,6.00
2019-02-21T02:23:43.239Z,6.00
2019-02-21T02:26:11.673Z,6.00
2019-02-21T02:28:40.588Z,6.00
2019-02-21T02:31:21.484Z,5.90
2019-02-21T02:33:39.234Z,5.90
2019-02-21T02:36:07.647Z,5.90
2019-02-21T02:38:36.177Z,5.90
2019-02-21T02:41:04.628Z,5.90
2019-02-21T02:43:33.043Z,5.80
2019-02-21T02:46:01.498Z,5.80
2019-02-21T02:48:29.900Z,5.80
2019-02-21T02:50:58.348Z,5.80
2019-02-21T02:53:26.777Z,5.80
2019-02-21T02:55:55.225Z,5.80
2019-02-21T02:58:23.641Z,5.90
2019-02-21T03:00:52.125Z,6.00
2019-02-21T03:03:20.785Z,6.00
2019-02-21T03:05:49.241Z,6.10
2019-02-21T03:08:17.673Z,6.10
2019-02-21T03:10:46.102Z,6.10
2019-02-21T03:13:14.538Z,6.10
2019-02-21T03:15:42.965Z,6.00
2019-02-21T03:18:11.405Z,6.10
2019-02-21T03:20:39.833Z,6.10
2019-02-21T03:23:08.249Z,6.20
2019-02-21T03:25:36.693Z,6.20
2019-02-21T03:28:05.337Z,6.10
2019-02-21T03:30:33.786Z,6.10
2019-02-21T03:33:02.203Z,6.10
2019-02-21T03:35:30.622Z,6.10
2019-02-21T03:37:59.082Z,6.10
2019-02-21T03:40:27.493Z,6.10
2019-02-21T03:42:55.923Z,6.10
2019-02-21T03:45:24.361Z,6.20
2019-02-21T03:47:52.893Z,6.30
2019-02-21T03:50:21.305Z,6.30
2019-02-21T03:52:49.743Z,6.30
2019-02-21T03:55:18.174Z,6.20
2019-02-21T03:57:46.611Z,6.20
2019-02-21T04:00:15.038Z,6.10
2019-02-21T04:02:43.534Z,6.10
2019-02-21T04:05:12.025Z,6.20
2019-02-21T04:07:40.549Z,6.30
2019-02-21T04:10:09.404Z,6.20
2019-02-21T04:12:37.834Z,6.10
2019-02-21T04:15:08.386Z,6.10
2019-02-21T04:17:36.839Z,6.10
2019-02-21T04:20:06.706Z,6.00
2019-02-21T04:22:35.133Z,6.00
2019-02-21T04:25:03.917Z,6.00
2019-02-21T04:27:32.391Z,6.00
2019-02-21T04:30:00.859Z,6.00
2019-02-21T04:32:29.295Z,6.00
2019-02-21T04:34:57.737Z,5.90
2019-02-21T04:37:26.150Z,5.90
2019-02-21T04:39:54.658Z,5.90
2019-02-21T04:42:23.085Z,5.90
2019-02-21T04:44:51.533Z,5.90
2019-02-21T04:47:19.943Z,5.90
2019-02-21T04:49:48.384Z,6.00
2019-02-21T04:52:16.805Z,6.10
2019-02-21T04:54:45.239Z,6.10
2019-02-21T04:57:13.725Z,6.20
2019-02-21T04:59:42.157Z,6.20
2019-02-21T05:02:10.578Z,6.20
2019-02-21T05:04:39.018Z,6.20
2019-02-21T05:07:07.443Z,6.20
2019-02-21T05:09:35.884Z,6.20
2019-02-21T05:12:04.290Z,6.20
2019-02-21T05:14:32.734Z,6.20
2019-02-21T05:17:01.213Z,6.20
2019-02-21T05:19:29.682Z,6.20
2019-02-21T05:21:58.109Z,6.20
2019-02-21T05:24:26.567Z,6.20
2019-02-21T05:26:56.634Z,6.10
2019-02-21T05:29:25.060Z,6.10
2019-02-21T05:32:10.337Z,6.10
2019-02-21T05:34:46.080Z,6.20
2019-02-21T05:37:22.116Z,6.20
2019-02-21T05:39:58.148Z,6.20
2019-02-21T05:42:30.928Z,6.30
2019-02-21T05:45:10.991Z,6.30
2019-02-21T05:47:43.714Z,6.30
2019-02-21T05:50:18.040Z,6.30
2019-02-21T05:52:56.964Z,6.20
2019-02-21T05:55:27.046Z,6.20
2019-02-21T05:57:59.694Z,6.20
2019-02-21T06:00:38.605Z,6.20
2019-02-21T06:03:08.676Z,6.30
2019-02-21T06:05:41.414Z,6.30
2019-02-21T06:08:11.579Z,6.20
2019-02-21T06:10:44.627Z,6.10
2019-02-21T06:13:20.229Z,6.20
2019-02-21T06:15:50.291Z,6.20
2019-02-21T06:18:25.953Z,6.20
2019-02-21T06:20:58.851Z,6.20
2019-02-21T06:23:31.876Z,6.10
2019-02-21T06:26:01.958Z,6.10
2019-02-21T06:28:32.036Z,6.10
2019-02-21T06:31:02.100Z,6.10
2019-02-21T06:33:30.535Z,6.10
2019-02-21T06:35:58.965Z,6.10
2019-02-21T06:38:27.430Z,6.10
2019-02-21T06:40:55.854Z,6.10
2019-02-21T06:43:24.346Z,6.10
2019-02-21T06:45:52.774Z,6.10
2019-02-21T06:48:21.240Z,6.10
2019-02-21T06:50:49.736Z,6.10
2019-02-21T06:53:18.180Z,6.10
2019-02-21T06:55:46.619Z,6.00
2019-02-21T06:58:15.072Z,6.00
2019-02-21T07:00:43.477Z,6.10
2019-02-21T07:03:15.914Z,6.10
2019-02-21T07:05:42.099Z,6.10
2019-02-21T07:08:10.527Z,6.00
2019-02-21T07:10:38.984Z,6.00
2019-02-21T07:13:07.458Z,6.10
2019-02-21T07:15:35.932Z,6.10
2019-02-21T07:18:04.421Z,6.10
2019-02-21T07:20:32.875Z,6.10
2019-02-21T07:23:01.294Z,6.10
2019-02-21T07:25:34.216Z,6.10
2019-02-21T07:28:11.190Z,6.10
2019-02-21T07:30:32.955Z,6.10
2019-02-21T07:33:01.459Z,6.10
2019-02-21T07:35:29.899Z,6.10
2019-02-21T07:37:58.343Z,6.10
2019-02-21T07:40:26.846Z,6.20
2019-02-21T07:42:55.275Z,6.10
2019-02-21T07:45:23.802Z,6.10
2019-02-21T07:47:52.234Z,6.20
2019-02-21T07:50:23.057Z,6.20
2019-02-21T07:53:01.700Z,6.30
2019-02-21T07:55:21.052Z,6.40
2019-02-21T07:57:49.490Z,6.40
2019-02-21T08:00:17.935Z,6.50
2019-02-21T08:02:46.357Z,6.60
2019-02-21T08:05:14.858Z,6.60
2019-02-21T08:07:43.302Z,6.60
2019-02-21T08:10:12.398Z,6.70
2019-02-21T08:12:40.853Z,6.70
2019-02-21T08:15:11.972Z,6.70
2019-02-21T08:17:40.693Z,6.80
2019-02-21T08:20:11.148Z,6.90
2019-02-21T08:22:39.683Z,7.00
2019-02-21T08:25:10.089Z,7.00
2019-02-21T08:27:38.672Z,7.10
2019-02-21T08:30:12.616Z,7.10
2019-02-21T08:32:58.514Z,7.20
2019-02-21T08:35:27.241Z,7.20
2019-02-21T08:37:55.691Z,7.30
2019-02-21T08:40:25.132Z,7.30
2019-02-21T08:42:53.748Z,7.40
2019-02-21T08:45:22.238Z,7.40
2019-02-21T08:47:50.690Z,7.50
2019-02-21T08:50:22.118Z,7.60
2019-02-21T08:52:49.281Z,7.60
2019-02-21T08:55:17.711Z,7.70
2019-02-21T08:57:46.152Z,7.70
2019-02-21T09:00:16.126Z,7.80
2019-02-21T09:02:44.698Z,7.90
2019-02-21T09:05:14.173Z,8.00
2019-02-21T09:07:42.699Z,8.00
2019-02-21T09:10:12.257Z,8.20
2019-02-21T09:12:40.823Z,8.30
2019-02-21T09:15:12.181Z,8.40
2019-02-21T09:17:40.629Z,8.50
2019-02-21T09:20:10.489Z,8.60
2019-02-21T09:22:38.937Z,8.70
2019-02-21T09:25:12.434Z,8.90
2019-02-21T09:27:40.892Z,9.00
2019-02-21T09:30:19.002Z,9.10
2019-02-21T09:32:47.627Z,9.20
2019-02-21T09:35:16.039Z,9.40
2019-02-21T09:37:44.499Z,9.40
2019-02-21T09:40:14.396Z,9.60
2019-02-21T09:42:42.823Z,9.60
2019-02-21T09:45:16.600Z,9.60
2019-02-21T09:47:45.101Z,9.60
2019-02-21T09:50:13.902Z,9.60
2019-02-21T09:52:42.397Z,9.70
2019-02-21T09:55:16.080Z,9.70
2019-02-21T09:57:44.520Z,9.90
2019-02-21T10:00:15.585Z,10.00
2019-02-21T10:02:44.095Z,10.20
2019-02-21T10:05:12.605Z,10.30
2019-02-21T10:07:41.096Z,10.50
2019-02-21T10:10:12.382Z,10.60
2019-02-21T10:12:40.801Z,10.70
2019-02-21T10:15:11.699Z,10.80
2019-02-21T10:17:40.183Z,10.80
2019-02-21T10:20:11.182Z,11.00
2019-02-21T10:22:39.683Z,11.00
2019-02-21T10:25:13.875Z,11.10
2019-02-21T10:27:42.311Z,11.20
2019-02-21T10:30:13.625Z,11.30
2019-02-21T10:32:42.081Z,11.40
2019-02-21T10:35:10.585Z,11.50
2019-02-21T10:37:39.097Z,11.50
2019-02-21T10:40:12.352Z,11.60
2019-02-21T10:42:40.814Z,11.60
2019-02-21T10:45:11.975Z,11.70
2019-02-21T10:47:40.411Z,11.80
2019-02-21T10:50:14.556Z,11.90
2019-02-21T10:52:43.081Z,12.10
2019-02-21T10:55:11.843Z,12.20
2019-02-21T10:57:40.309Z,12.30
2019-02-21T11:00:23.855Z,12.40
2019-02-21T11:02:52.308Z,12.60
2019-02-21T11:05:20.728Z,12.90
2019-02-21T11:07:49.254Z,13.00
2019-02-21T11:10:21.005Z,13.00
2019-02-21T11:12:49.530Z,13.00
2019-02-21T11:15:19.589Z,13.10
2019-02-21T11:17:48.036Z,13.20
2019-02-21T11:20:19.759Z,13.40
2019-02-21T11:22:48.293Z,13.60
2019-02-21T11:25:16.813Z,14.00
2019-02-21T11:27:45.277Z,14.30
2019-02-21T11:30:15.752Z,14.60
2019-02-21T11:32:44.214Z,14.80
2019-02-21T11:35:13.439Z,15.10
2019-02-21T11:37:44.411Z,15.40
2019-02-21T11:40:14.614Z,15.70
2019-02-21T11:42:43.146Z,16.00
2019-02-21T11:45:18.839Z,16.20
2019-02-21T11:47:47.369Z,16.40
2019-02-21T11:50:19.366Z,16.60
2019-02-21T11:52:47.845Z,16.70
2019-02-21T11:55:18.694Z,16.70
2019-02-21T11:57:47.200Z,16.70
2019-02-21T12:00:24.101Z,16.80
2019-02-21T12:02:52.593Z,17.00
2019-02-21T12:05:30.680Z,17.20
2019-02-21T12:07:51.178Z,17.30
2019-02-21T12:10:19.775Z,17.30
2019-02-21T12:12:48.248Z,17.30
2019-02-21T12:15:17.245Z,17.20
2019-02-21T12:17:45.653Z,17.10
2019-02-21T12:20:18.205Z,17.10
2019-02-21T12:22:47.065Z,17.20
2019-02-21T12:25:17.626Z,17.30
2019-02-21T12:27:46.024Z,17.30
2019-02-21T12:30:18.741Z,17.30
2019-02-21T12:32:47.549Z,17.30
2019-02-21T12:35:16.080Z,17.30
2019-02-21T12:37:44.508Z,17.30
2019-02-21T12:40:21.369Z,17.30
2019-02-21T12:42:49.793Z,17.10
2019-02-21T12:45:19.783Z,17.00
2019-02-21T12:47:53.155Z,16.80
2019-02-21T12:50:19.016Z,16.70
2019-02-21T12:52:47.444Z,16.70
2019-02-21T12:55:27.017Z,16.50
2019-02-21T12:57:46.045Z,16.40
2019-02-21T13:00:21.605Z,16.30
2019-02-21T13:02:50.034Z,16.20
2019-02-21T13:05:18.563Z,16.20
2019-02-21T13:07:47.070Z,16.10
2019-02-21T13:10:17.652Z,16.10
2019-02-21T13:12:46.215Z,16.00
2019-02-21T13:15:15.393Z,16.00
2019-02-21T13:17:43.876Z,15.90
2019-02-21T13:20:14.022Z,15.80
2019-02-21T13:22:42.543Z,15.70
2019-02-21T13:25:12.914Z,15.70
2019-02-21T13:27:41.390Z,15.70
2019-02-21T13:30:14.721Z,15.70
2019-02-21T13:32:43.216Z,15.80
2019-02-21T13:35:13.575Z,15.80
2019-02-21T13:37:42.202Z,15.80
2019-02-21T13:40:15.195Z,15.70
2019-02-21T13:42:43.787Z,15.80
2019-02-21T13:45:17.405Z,15.80
2019-02-21T13:47:46.512Z,15.80
2019-02-21T13:50:19.145Z,15.90
2019-02-21T13:52:47.810Z,15.90
2019-02-21T13:55:16.285Z,15.90
2019-02-21T13:57:47.664Z,15.80
2019-02-21T14:00:18.441Z,15.80
2019-02-21T14:02:46.927Z,15.70
2019-02-21T14:05:15.409Z,15.70
2019-02-21T14:07:43.949Z,15.60
2019-02-21T14:10:13.715Z,15.50
2019-02-21T14:12:42.216Z,15.40
2019-02-21T14:15:28.084Z,15.30
2019-02-21T14:17:56.525Z,15.30
2019-02-21T14:20:25.050Z,15.20
2019-02-21T14:22:53.469Z,15.20
2019-02-21T14:25:21.923Z,15.20
2019-02-21T14:27:50.357Z,15.20
2019-02-21T14:30:19.989Z,15.20
2019-02-21T14:32:48.478Z,15.20
2019-02-21T14:35:16.997Z,15.30
2019-02-21T14:37:45.569Z,15.20
2019-02-21T14:40:17.534Z,15.20
2019-02-21T14:42:45.962Z,15.30
2019-02-21T14:45:19.209Z,15.30
2019-02-21T14:47:47.672Z,15.40
2019-02-21T14:50:16.303Z,15.40
2019-02-21T14:52:45.061Z,15.40
2019-02-21T14:55:18.071Z,15.30
2019-02-21T14:57:46.689Z,15.40
2019-02-21T15:00:22.792Z,15.30
2019-02-21T15:02:51.238Z,15.20
2019-02-21T15:05:20.050Z,15.10
2019-02-21T15:07:48.561Z,15.10
2019-02-21T15:10:17.278Z,15.00
2019-02-21T15:12:45.874Z,15.00
2019-02-21T15:15:16.671Z,15.00
2019-02-21T15:17:45.129Z,14.90
2019-02-21T15:20:15.290Z,14.80
2019-02-21T15:22:43.760Z,14.80
2019-02-21T15:25:12.177Z,14.80
2019-02-21T15:27:40.642Z,14.80
2019-02-21T15:30:17.348Z,14.70
2019-02-21T15:32:45.819Z,14.70
2019-02-21T15:35:14.404Z,14.70
2019-02-21T15:37:44.808Z,14.60
2019-02-21T15:40:13.194Z,14.60
2019-02-21T15:42:41.630Z,14.60
2019-02-21T15:45:22.881Z,14.50
2019-02-21T15:47:45.982Z,14.50
2019-02-21T15:50:15.178Z,14.40
2019-02-21T15:52:44.806Z,14.40
2019-02-21T15:55:18.242Z,14.30
2019-02-21T15:57:47.723Z,14.30
2019-02-21T16:00:23.498Z,14.20
2019-02-21T16:02:51.933Z,14.20
2019-02-21T16:05:20.515Z,14.20
2019-02-21T16:07:48.965Z,14.20
2019-02-21T16:10:23.368Z,14.20
2019-02-21T16:12:52.144Z,14.20
2019-02-21T16:15:20.923Z,14.20
2019-02-21T16:17:49.442Z,14.20
2019-02-21T16:20:19.021Z,14.10
2019-02-21T16:22:47.542Z,14.10
2019-02-21T16:25:24.061Z,14.10
2019-02-21T16:27:55.118Z,14.10
2019-02-21T16:30:22.856Z,14.00
2019-02-21T16:32:51.295Z,14.00
2019-02-21T16:35:19.842Z,14.00
2019-02-21T16:37:48.284Z,13.90
2019-02-21T16:40:20.396Z,13.80
2019-02-21T16:42:48.903Z,13.80
2019-02-21T16:45:19.465Z,13.70
2019-02-21T16:47:47.912Z,13.70
2019-02-21T16:50:16.552Z,13.60
2019-02-21T16:52:45.100Z,13.50
2019-02-21T16:55:19.076Z,13.40
2019-02-21T16:57:47.594Z,13.30
2019-02-21T17:00:20.322Z,13.20
2019-02-21T17:02:48.846Z,13.10
2019-02-21T17:05:17.366Z,13.00
2019-02-21T17:07:45.831Z,13.00
2019-02-21T17:10:15.670Z,12.90
2019-02-21T17:12:44.128Z,12.90
2019-02-21T17:15:17.544Z,12.80
2019-02-21T17:17:46.044Z,12.80
2019-02-21T17:20:16.419Z,12.70
2019-02-21T17:22:44.945Z,12.70
2019-02-21T17:25:14.942Z,12.60
2019-02-21T17:27:44.450Z,12.60
2019-02-21T17:30:15.312Z,12.50
2019-02-21T17:32:43.795Z,12.50
2019-02-21T17:35:12.514Z,12.50
2019-02-21T17:37:41.028Z,12.40
2019-02-21T17:40:12.488Z,12.30
2019-02-21T17:42:41.969Z,12.30
2019-02-21T17:45:10.935Z,12.30
2019-02-21T17:47:39.400Z,12.30
2019-02-21T17:50:11.109Z,12.30
2019-02-21T17:52:39.598Z,12.20
2019-02-21T17:55:09.874Z,12.20
2019-02-21T17:57:38.538Z,12.20
2019-02-21T18:00:22.532Z,12.10
2019-02-21T18:02:51.086Z,12.20
2019-02-21T18:05:19.633Z,12.10
2019-02-21T18:07:48.223Z,12.10
2019-02-21T18:10:17.799Z,12.10
2019-02-21T18:12:46.255Z,12.10
2019-02-21T18:15:15.752Z,12.00
2019-02-21T18:17:44.296Z,12.00
2019-02-21T18:20:14.299Z,12.00
2019-02-21T18:22:42.949Z,12.00
2019-02-21T18:25:17.100Z,12.00
2019-02-21T18:27:45.701Z,12.00
2019-02-21T18:30:17.771Z,12.00
2019-02-21T18:32:46.201Z,12.00
2019-02-21T18:35:14.865Z,12.00
2019-02-21T18:37:47.510Z,11.90
2019-02-21T18:40:19.693Z,11.90
2019-02-21T18:42:46.955Z,11.90
2019-02-21T18:45:15.549Z,11.80
2019-02-21T18:47:44.057Z,11.80
2019-02-21T18:50:13.782Z,11.80
2019-02-21T18:52:42.304Z,11.80
2019-02-21T18:55:11.032Z,11.80
2019-02-21T18:57:39.445Z,11.80
2019-02-21T19:00:19.985Z,11.80
2019-02-21T19:02:48.585Z,11.80
2019-02-21T19:05:17.216Z,11.80
2019-02-21T19:07:45.690Z,11.80
2019-02-21T19:10:19.012Z,11.80
2019-02-21T19:12:47.654Z,11.80
2019-02-21T19:15:20.613Z,11.70
2019-02-21T19:17:49.205Z,11.70
2019-02-21T19:20:19.135Z,11.70
2019-02-21T19:22:47.734Z,11.70
2019-02-21T19:25:16.397Z,11.70
2019-02-21T19:27:45.053Z,11.70
2019-02-21T19:30:19.575Z,11.70
2019-02-21T19:32:48.185Z,11.70
2019-02-21T19:35:16.947Z,11.70
2019-02-21T19:37:45.439Z,11.70
2019-02-21T19:40:14.267Z,11.60
2019-02-21T19:42:42.847Z,11.60
2019-02-21T19:45:11.436Z,11.60
2019-02-21T19:47:40.117Z,11.70
2019-02-21T19:50:09.443Z,11.60
2019-02-21T19:52:38.052Z,11.60
2019-02-21T19:55:08.730Z,11.70
2019-02-21T19:57:37.339Z,11.70
2019-02-21T20:00:21.958Z,11.70
2019-02-21T20:02:50.597Z,11.70
2019-02-21T20:05:19.285Z,11.70
2019-02-21T20:07:47.926Z,11.70
2019-02-21T20:10:16.637Z,11.70
2019-02-21T20:12:45.311Z,11.70
2019-02-21T20:15:14.099Z,11.70
2019-02-21T20:17:42.739Z,11.70
2019-02-21T20:20:17.275Z,11.70
2019-02-21T20:22:45.880Z,11.60
2019-02-21T20:25:14.593Z,11.70
2019-02-21T20:27:43.071Z,11.70
2019-02-21T20:30:17.447Z,11.60
2019-02-21T20:32:46.116Z,11.60
2019-02-21T20:35:15.283Z,11.60
2019-02-21T20:37:43.895Z,11.60
2019-02-21T20:40:12.838Z,11.60
2019-02-21T20:42:41.529Z,11.60
2019-02-21T20:45:14.095Z,11.60
2019-02-21T20:47:42.726Z,11.60
2019-02-21T20:50:12.138Z,11.60
2019-02-21T20:52:40.884Z,11.50
2019-02-21T20:55:10.947Z,11.50
2019-02-21T20:57:39.670Z,11.50
2019-02-21T21:00:11.357Z,11.50
2019-02-21T21:02:39.968Z,11.50
2019-02-21T21:05:08.736Z,11.50
2019-02-21T21:07:37.323Z,11.60
2019-02-21T21:10:14.710Z,11.60
2019-02-21T21:12:43.211Z,11.50
2019-02-21T21:15:13.454Z,11.50
2019-02-21T21:17:41.946Z,11.50
2019-02-21T21:20:16.660Z,11.50
2019-02-21T21:22:42.438Z,11.50
2019-02-21T21:25:15.502Z,11.50
2019-02-21T21:27:44.012Z,11.40
2019-02-21T21:30:15.068Z,11.40
2019-02-21T21:32:43.628Z,11.50
2019-02-21T21:35:12.325Z,11.50
2019-02-21T21:37:40.996Z,11.50
2019-02-21T21:40:16.923Z,11.50
2019-02-21T21:42:45.619Z,11.50
2019-02-21T21:45:18.492Z,11.50
2019-02-21T21:47:47.046Z,11.50
2019-02-21T21:50:18.173Z,11.40
2019-02-21T21:52:46.671Z,11.40
2019-02-21T21:55:15.391Z,11.40
2019-02-21T21:57:44.022Z,11.40
2019-02-21T22:00:23.320Z,11.40
2019-02-21T22:02:51.854Z,11.50
2019-02-21T22:05:20.529Z,11.50
2019-02-21T22:07:49.471Z,11.50
2019-02-21T22:10:18.205Z,11.50
2019-02-21T22:12:46.733Z,11.60
2019-02-21T22:15:20.261Z,11.60
2019-02-21T22:17:48.715Z,11.60
2019-02-21T22:20:17.161Z,11.60
2019-02-21T22:22:45.772Z,11.50
2019-02-21T22:25:14.665Z,11.50
2019-02-21T22:27:43.277Z,11.50
2019-02-21T22:30:14.228Z,11.60
2019-02-21T22:32:42.886Z,11.50
2019-02-21T22:35:11.419Z,12.20
2019-02-21T22:37:39.980Z,13.00
2019-02-21T22:40:11.320Z,13.40
2019-02-21T22:42:39.837Z,13.90
2019-02-21T22:45:09.405Z,14.00
2019-02-21T22:47:37.929Z,14.00
2019-02-21T22:50:09.610Z,14.10
2019-02-21T22:52:38.038Z,14.20
2019-02-21T22:55:10.106Z,14.20
2019-02-21T22:57:37.892Z,14.30
2019-02-21T23:00:54.431Z,14.00
2019-02-21T23:03:25.606Z,13.60
2019-02-21T23:06:09.017Z,13.20
2019-02-21T23:08:44.893Z,12.90
2019-02-21T23:11:13.476Z,12.80
2019-02-21T23:13:42.383Z,12.60
2019-02-21T23:16:10.979Z,12.50
2019-02-21T23:18:39.436Z,12.30
2019-02-21T23:21:08.077Z,12.10
2019-02-21T23:23:37.129Z,12.10
2019-02-21T23:26:05.661Z,12.00
2019-02-21T23:28:34.123Z,12.00
2019-02-21T23:31:02.593Z,12.00
2019-02-21T23:33:32.759Z,11.90
2019-02-21T23:36:01.242Z,11.90
2019-02-21T23:38:29.698Z,11.90
2019-02-21T23:40:58.257Z,11.90
2019-02-21T23:43:26.817Z,11.90
2019-02-21T23:45:55.435Z,11.80
2019-02-21T23:48:23.857Z,11.80
2019-02-21T23:50:52.296Z,11.80
2019-02-21T23:53:20.710Z,11.80
2019-02-21T23:55:49.168Z,11.80
2019-02-21T23:58:17.599Z,11.70
